Wednesday, May 24, 2017, 4:19 AM EDT

KPHF, Williamsburg International Airport

Location: Newport News, VA, United States Lat: 37.133
Local Time: 4:19 AM EDT ( 8:19 GMT) Lon: -76.5
Time Zone: US/Eastern Elev: 42 ft

Show me the last for .
Show Decoded

2017-05-24 03:54 METAR KPHF 240754Z 06007KT 4SM -RA BR BKN008 OVC012 16/15 A2965 RMK AO2 RAB37
                 CIG 005V011 SLP039 P0000 T01610150 =
2017-05-24 02:54 METAR KPHF 240654Z 04010KT 4SM BR BKN008 OVC014 16/16 A2965 RMK AO2 RAE35 CIG
                 005V011 SLP039 P0000 T01610156 =
2017-05-24 01:54 METAR KPHF 240554Z 04005KT 3SM -RA BR BKN009 OVC017 16/16 A2966 RMK AO2 CIG
                 005V012 SLP044 P0001 60020 T01610156 10167 20161 58007 =
2017-05-24 00:54 METAR KPHF 240454Z 05007KT 5SM -RA BR BKN008 BKN013 OVC020 16/16 A2967 RMK AO2
                 SLP046 P0000 T01610156 401940161 =
2017-05-23 23:54 METAR KPHF 240354Z 04007KT 10SM -RA BKN008 OVC014 17/16 A2968 RMK AO2 CIG
                 005V011 SLP051 P0003 T01670156 =
2017-05-23 22:54 METAR KPHF 240254Z 05008KT 4SM -RA BR OVC007 17/16 A2968 RMK AO2 CIG 005V011
                 SLP051 P0003 60016 T01670161 56020 =
2017-05-23 21:54 METAR KPHF 240154Z 05011KT 10SM -RA BKN008 OVC020 17/16 A2970 RMK AO2 SLP056
                 P0004 T01670156 =
2017-05-23 20:54 METAR KPHF 240054Z 05010KT 7SM -RA BKN006 OVC055 17/16 A2972 RMK AO2 SLP063
                 P0009 T01670156 =
2017-05-23 20:12 METAR KPHF 240012Z 06009KT 4SM RA BR OVC006 17/16 A2974 RMK AO2 P0003 T01670161
                 =
2017-05-23 20:05 METAR KPHF 240005Z 06010KT 2 1/2SM RA BR OVC006 17/16 A2974 RMK AO2 P0002
                 T01670156 =
2017-05-23 19:54 METAR KPHF 232354Z 05008KT 3SM -RA BR OVC006 17/16 A2974 RMK AO2 CIG 005V009
                 SLP071 P0003 60015 T01670161 10178 20167 58008 =
2017-05-23 18:54 METAR KPHF 232254Z 06010KT 5SM -RA BR OVC006 17/16 A2975 RMK AO2 CIG 004V009
                 SLP074 P0011 T01670156 =
2017-05-23 18:42 METAR KPHF 232242Z 06010KT 3SM RA BR OVC005 17/16 A2975 RMK AO2 CIG 004V009
                 P0010 T01670156 =
2017-05-23 18:35 METAR KPHF 232235Z 05009KT 2 1/2SM RA BR OVC005 17/16 A2976 RMK AO2 CIG 004V008
                 P0009 T01670156 =
2017-05-23 18:12 METAR KPHF 232212Z 06009KT 3SM RA BR OVC005 17/16 A2977 RMK AO2 P0003 T01670156
                 =
2017-05-23 17:54 METAR KPHF 232154Z 05007KT 5SM -RA BR OVC004 17/16 A2977 RMK AO2 RAB10 SLP080
                 P0001 T01670156 =
2017-05-23 17:49 METAR KPHF 232149Z 05010KT 5SM -RA BR OVC004 17/16 A2977 RMK AO2 RAB10 P0001 =
2017-05-23 16:54 METAR KPHF 232054Z 06010KT 10SM OVC005 17/16 A2978 RMK AO2 RAB06E33 SLP084 P0000
                 60000 T01670156 56025 =
2017-05-23 15:54 METAR KPHF 231954Z AUTO 07014G20KT 10SM OVC006 17/16 A2981 RMK AO2 RAE05B35E49
                 SLP092 P0000 T01720161 =
2017-05-23 14:54 METAR KPHF 231854Z 08012KT 10SM -RA OVC006 18/17 A2983 RMK AO2 RAB17 SLP099
                 P0000 T01780167 =
2017-05-23 13:54 METAR KPHF 231754Z 10010KT 10SM OVC005 18/17 A2986 RMK AO2 RAB03E53 SLP109 P0000
                 60005 T01780167 10194 20178 58015 =
2017-05-23 12:54 METAR KPHF 231654Z 09009KT 9SM OVC009 18/17 A2988 RMK AO2 RAE39 CIG 007V012
                 SLP119 P0002 T01830167 =
2017-05-23 12:49 METAR KPHF 231649Z 09010KT 9SM OVC009 18/17 A2989 RMK AO2 RAE39 CIG 007V011
                 P0002 =
2017-05-23 11:54 METAR KPHF 231554Z 08010KT 5SM -RA BR FEW010 BKN014 OVC065 18/17 A2990 RMK AO2
                 SLP124 P0000 T01830167 =
2017-05-23 11:37 METAR KPHF 231537Z 08013KT 6SM -RA BR BKN014 OVC070 18/16 A2991 RMK AO2 P0000
                 T01830161 =
2017-05-23 11:21 METAR KPHF 231521Z 10011KT 7SM -RA FEW009 BKN070 OVC085 18/17 A2991 RMK AO2
                 P0000 T01830167 =
2017-05-23 11:01 METAR KPHF 231501Z 09012G19KT 7SM -RA SCT009 BKN018 OVC070 18/17 A2990 RMK AO2
                 P0000 T01830172 =
2017-05-23 10:54 METAR KPHF 231454Z 09013G19KT 7SM -RA BKN009 BKN090 OVC110 19/17 A2991 RMK AO2
                 SLP126 P0001 60003 T01890172 55006 =
2017-05-23 09:54 METAR KPHF 231354Z 06009KT 8SM -RA SCT018 BKN090 OVC110 18/17 A2990 RMK AO2
                 SLP125 P0002 T01830167 =
2017-05-23 08:54 METAR KPHF 231254Z 05010KT 8SM -RA FEW009 SCT017 OVC110 19/17 A2992 RMK AO2
                 RAE02B25 SLP132 P0000 T01890172 =
2017-05-23 08:51 METAR KPHF 231251Z 05011KT 9SM -RA SCT011 SCT017 OVC110 19/17 A2992 RMK AO2
                 RAE02B25 P0000 =
2017-05-23 08:18 METAR KPHF 231218Z 04006KT 10SM SCT009 BKN013 BKN018 19/18 A2992 RMK AO2 RAE02
                 P0000 T01890178 =
2017-05-23 08:11 METAR KPHF 231211Z 05005KT 10SM BKN011 BKN018 19/18 A2992 RMK AO2 RAE02 P0000
                 T01890183 =
2017-05-23 07:54 METAR KPHF 231154Z 06005KT 8SM -RA FEW009 BKN018 BKN037 19/18 A2992 RMK AO2
                 RAB29 SLP131 P0000 60000 70074 T01890183 10189 20172 50002 =
2017-05-23 07:31 METAR KPHF 231131Z 02005KT 7SM -RA SCT010 BKN014 OVC022 18/18 A2992 RMK AO2
                 RAB29 P0000 T01830178 =
2017-05-23 07:18 METAR KPHF 231118Z 02005KT 9SM BKN009 OVC013 18/18 A2993 RMK AO2 CIG 006V011
                 T01830178 =
2017-05-23 06:54 METAR KPHF 231054Z 05006KT 7SM SCT007 BKN011 OVC017 18/18 A2992 RMK AO2 SLP132
                 T01830178 =
2017-05-23 06:45 METAR KPHF 231045Z 06004KT 7SM SCT004 BKN011 OVC017 18/18 A2992 RMK AO2
                 T01830178 =
2017-05-23 05:54 METAR KPHF 230954Z 04005KT 9SM BKN004 OVC024 18/18 A2992 RMK AO2 SLP130
                 T01830178 =
2017-05-23 05:23 METAR KPHF 230923Z 00000KT 6SM BR FEW003 SCT017 OVC024 18/18 A2991 RMK AO2
                 T01830178 =
2017-05-23 05:00 METAR KPHF 230900Z 00000KT 6SM BR FEW003 OVC014 18/17 A2991 RMK AO2 T01780172 =
2017-05-23 04:54 METAR KPHF 230854Z 00000KT 5SM BR OVC016 18/17 A2991 RMK AO2 SLP129 T01780172
                 58002 =
2017-05-23 04:47 METAR KPHF 230847Z 00000KT 3SM BR FEW002 OVC017 18/17 A2991 RMK AO2 T01780172 =
2017-05-23 04:38 METAR KPHF 230838Z 00000KT 1SM BR SCT002 OVC017 17/17 A2991 RMK AO2 T01720172 =

Support USWX by starting your Amazon purchase here.